sensor_id;sensor_type;location;lat;lon;timestamp;pressure;altitude;pressure_sealevel;temperature;humidity
10079;BME280;5078;42.544;22.966;2023-06-14T00:01:46;93621.03;;;16.61;100.00
10079;BME280;5078;42.544;22.966;2023-06-14T00:04:14;93617.19;;;16.76;100.00
10079;BME280;5078;42.544;22.966;2023-06-14T00:06:42;93615.97;;;16.78;100.00
10079;BME280;5078;42.544;22.966;2023-06-14T00:09:10;93614.72;;;16.81;100.00
10079;BME280;5078;42.544;22.966;2023-06-14T00:11:39;93608.19;;;16.70;100.00
10079;BME280;5078;42.544;22.966;2023-06-14T00:14:06;93612.94;;;16.68;100.00
10079;BME280;5078;42.544;22.966;2023-06-14T00:16:33;93610.22;;;16.75;100.00
10079;BME280;5078;42.544;22.966;2023-06-14T00:19:00;93604.97;;;16.87;100.00
10079;BME280;5078;42.544;22.966;2023-06-14T00:21:29;93599.41;;;16.88;100.00
10079;BME280;5078;42.544;22.966;2023-06-14T00:23:55;93600.97;;;16.96;100.00
10079;BME280;5078;42.544;22.966;2023-06-14T00:26:22;93600.06;;;16.84;100.00
10079;BME280;5078;42.544;22.966;2023-06-14T00:28:50;93603.19;;;16.80;100.00
10079;BME280;5078;42.544;22.966;2023-06-14T00:31:17;93594.56;;;16.78;100.00
10079;BME280;5078;42.544;22.966;2023-06-14T00:33:44;93597.22;;;16.53;100.00
10079;BME280;5078;42.544;22.966;2023-06-14T00:36:10;93594.03;;;16.38;100.00
10079;BME280;5078;42.544;22.966;2023-06-14T00:38:38;93566.34;;;16.51;100.00
10079;BME280;5078;42.544;22.966;2023-06-14T00:41:04;93596.56;;;16.83;100.00
10079;BME280;5078;42.544;22.966;2023-06-14T00:43:31;93581.34;;;16.77;100.00
10079;BME280;5078;42.544;22.966;2023-06-14T00:46:01;93587.03;;;16.62;100.00
10079;BME280;5078;42.544;22.966;2023-06-14T00:48:28;93591.28;;;16.70;100.00
10079;BME280;5078;42.544;22.966;2023-06-14T00:50:56;93588.81;;;16.75;100.00
10079;BME280;5078;42.544;22.966;2023-06-14T00:53:23;93580.81;;;16.18;100.00
10079;BME280;5078;42.544;22.966;2023-06-14T00:55:50;93584.56;;;16.10;100.00
10079;BME280;5078;42.544;22.966;2023-06-14T00:58:17;93586.34;;;16.23;100.00
10079;BME280;5078;42.544;22.966;2023-06-14T01:00:44;93587.31;;;16.29;100.00
10079;BME280;5078;42.544;22.966;2023-06-14T01:03:12;93589.44;;;16.20;100.00
10079;BME280;5078;42.544;22.966;2023-06-14T01:05:40;93591.56;;;16.11;100.00
10079;BME280;5078;42.544;22.966;2023-06-14T01:08:17;93580.03;;;16.11;100.00
10079;BME280;5078;42.544;22.966;2023-06-14T01:10:58;93576.63;;;16.29;100.00
10079;BME280;5078;42.544;22.966;2023-06-14T01:13:34;93578.59;;;16.40;100.00
10079;BME280;5078;42.544;22.966;2023-06-14T01:16:01;93578.91;;;16.50;100.00
10079;BME280;5078;42.544;22.966;2023-06-14T01:18:31;93573.50;;;16.57;100.00
10079;BME280;5078;42.544;22.966;2023-06-14T01:20:59;93576.16;;;16.57;100.00
10079;BME280;5078;42.544;22.966;2023-06-14T01:23:32;93581.47;;;16.64;100.00
10079;BME280;5078;42.544;22.966;2023-06-14T01:26:00;93578.03;;;16.56;100.00
10079;BME280;5078;42.544;22.966;2023-06-14T01:28:28;93577.75;;;16.65;100.00
10079;BME280;5078;42.544;22.966;2023-06-14T01:30:59;93577.84;;;16.76;100.00
10079;BME280;5078;42.544;22.966;2023-06-14T01:33:31;93572.91;;;16.80;100.00
10079;BME280;5078;42.544;22.966;2023-06-14T01:36:00;93579.84;;;16.63;100.00
10079;BME280;5078;42.544;22.966;2023-06-14T01:38:29;93576.16;;;16.82;100.00
10079;BME280;5078;42.544;22.966;2023-06-14T01:40:58;93574.69;;;16.86;100.00
10079;BME280;5078;42.544;22.966;2023-06-14T01:43:28;93576.63;;;16.79;100.00
10079;BME280;5078;42.544;22.966;2023-06-14T01:45:57;93572.31;;;16.78;100.00
10079;BME280;5078;42.544;22.966;2023-06-14T01:48:25;93579.78;;;16.69;100.00
10079;BME280;5078;42.544;22.966;2023-06-14T01:50:52;93585.06;;;16.76;100.00
10079;BME280;5078;42.544;22.966;2023-06-14T01:53:18;93590.00;;;16.79;100.00
10079;BME280;5078;42.544;22.966;2023-06-14T01:55:46;93597.84;;;16.74;100.00
10079;BME280;5078;42.544;22.966;2023-06-14T01:58:15;93607.72;;;16.80;100.00
10079;BME280;5078;42.544;22.966;2023-06-14T02:00:42;93602.59;;;16.72;100.00
10079;BME280;5078;42.544;22.966;2023-06-14T02:03:10;93599.91;;;16.78;100.00
10079;BME280;5078;42.544;22.966;2023-06-14T02:05:38;93592.91;;;16.77;100.00
10079;BME280;5078;42.544;22.966;2023-06-14T02:08:05;93603.66;;;16.71;100.00
10079;BME280;5078;42.544;22.966;2023-06-14T02:10:32;93600.97;;;16.71;100.00
10079;BME280;5078;42.544;22.966;2023-06-14T02:12:59;93603.66;;;16.71;100.00
10079;BME280;5078;42.544;22.966;2023-06-14T02:15:27;93601.13;;;16.26;100.00
10079;BME280;5078;42.544;22.966;2023-06-14T02:17:59;93606.19;;;16.09;100.00
10079;BME280;5078;42.544;22.966;2023-06-14T02:20:26;93609.44;;;16.17;100.00
10079;BME280;5078;42.544;22.966;2023-06-14T02:22:53;93604.91;;;16.18;100.00
10079;BME280;5078;42.544;22.966;2023-06-14T02:25:20;93605.88;;;15.92;100.00
10079;BME280;5078;42.544;22.966;2023-06-14T02:27:47;93619.84;;;15.42;100.00
10079;BME280;5078;42.544;22.966;2023-06-14T02:30:14;93621.88;;;15.47;100.00
10079;BME280;5078;42.544;22.966;2023-06-14T02:32:43;93629.75;;;15.35;100.00
10079;BME280;5078;42.544;22.966;2023-06-14T02:35:09;93629.44;;;14.98;100.00
10079;BME280;5078;42.544;22.966;2023-06-14T02:37:37;93630.06;;;14.94;100.00
10079;BME280;5078;42.544;22.966;2023-06-14T02:40:05;93633.72;;;15.06;100.00
10079;BME280;5078;42.544;22.966;2023-06-14T02:42:32;93633.97;;;14.98;100.00
10079;BME280;5078;42.544;22.966;2023-06-14T02:44:58;93627.56;;;14.92;100.00
10079;BME280;5078;42.544;22.966;2023-06-14T02:47:25;93619.16;;;15.02;100.00
10079;BME280;5078;42.544;22.966;2023-06-14T02:49:53;93623.47;;;15.03;100.00
10079;BME280;5078;42.544;22.966;2023-06-14T02:52:20;93624.09;;;14.52;100.00
10079;BME280;5078;42.544;22.966;2023-06-14T02:54:47;93621.66;;;14.43;100.00
10079;BME280;5078;42.544;22.966;2023-06-14T02:57:14;93620.59;;;14.44;100.00
10079;BME280;5078;42.544;22.966;2023-06-14T02:59:41;93616.09;;;14.52;100.00
10079;BME280;5078;42.544;22.966;2023-06-14T03:02:08;93621.66;;;14.63;100.00
10079;BME280;5078;42.544;22.966;2023-06-14T03:04:34;93625.34;;;14.69;100.00
10079;BME280;5078;42.544;22.966;2023-06-14T03:07:04;93631.09;;;14.79;100.00
10079;BME280;5078;42.544;22.966;2023-06-14T03:09:34;93634.56;;;14.86;100.00
10079;BME280;5078;42.544;22.966;2023-06-14T03:12:01;93637.63;;;14.97;100.00
10079;BME280;5078;42.544;22.966;2023-06-14T03:14:29;93643.19;;;15.02;100.00
10079;BME280;5078;42.544;22.966;2023-06-14T03:16:56;93638.66;;;15.02;100.00
10079;BME280;5078;42.544;22.966;2023-06-14T03:19:24;93649.97;;;14.91;100.00
10079;BME280;5078;42.544;22.966;2023-06-14T03:21:51;93652.22;;;15.01;100.00
10079;BME280;5078;42.544;22.966;2023-06-14T03:24:20;93661.66;;;14.97;100.00
10079;BME280;5078;42.544;22.966;2023-06-14T03:26:47;93665.19;;;14.91;100.00
10079;BME280;5078;42.544;22.966;2023-06-14T03:29:13;93667.81;;;14.97;100.00
10079;BME280;5078;42.544;22.966;2023-06-14T03:31:55;93655.91;;;15.00;100.00
10079;BME280;5078;42.544;22.966;2023-06-14T03:34:22;93638.69;;;14.82;100.00
10079;BME280;5078;42.544;22.966;2023-06-14T03:36:49;93641.78;;;14.73;100.00
10079;BME280;5078;42.544;22.966;2023-06-14T03:39:16;93661.66;;;14.97;100.00
10079;BME280;5078;42.544;22.966;2023-06-14T03:41:44;93641.97;;;14.84;100.00
10079;BME280;5078;42.544;22.966;2023-06-14T03:44:11;93651.00;;;14.97;100.00
10079;BME280;5078;42.544;22.966;2023-06-14T03:46:38;93664.09;;;15.12;100.00
10079;BME280;5078;42.544;22.966;2023-06-14T03:49:04;93661.63;;;15.10;100.00
10079;BME280;5078;42.544;22.966;2023-06-14T03:51:31;93659.81;;;15.10;100.00
10079;BME280;5078;42.544;22.966;2023-06-14T03:54:00;93663.06;;;15.32;100.00
10079;BME280;5078;42.544;22.966;2023-06-14T03:56:27;93597.53;;;15.10;100.00
10079;BME280;5078;42.544;22.966;2023-06-14T03:58:55;93659.91;;;15.49;100.00
10079;BME280;5078;42.544;22.966;2023-06-14T04:01:22;93634.19;;;15.54;100.00
10079;BME280;5078;42.544;22.966;2023-06-14T04:03:55;93647.13;;;15.71;100.00
10079;BME280;5078;42.544;22.966;2023-06-14T04:06:23;93641.50;;;15.86;100.00
10079;BME280;5078;42.544;22.966;2023-06-14T04:08:58;93646.06;;;15.72;100.00
10079;BME280;5078;42.544;22.966;2023-06-14T04:11:29;93616.78;;;15.90;100.00
10079;BME280;5078;42.544;22.966;2023-06-14T04:13:58;93596.56;;;16.33;100.00
10079;BME280;5078;42.544;22.966;2023-06-14T04:16:25;93634.25;;;17.07;100.00
10079;BME280;5078;42.544;22.966;2023-06-14T04:18:51;93630.03;;;17.73;100.00
10079;BME280;5078;42.544;22.966;2023-06-14T04:21:18;93623.75;;;18.27;100.00
10079;BME280;5078;42.544;22.966;2023-06-14T04:23:45;93618.44;;;18.74;100.00
10079;BME280;5078;42.544;22.966;2023-06-14T04:26:12;93604.84;;;18.88;100.00
10079;BME280;5078;42.544;22.966;2023-06-14T04:28:39;93618.28;;;19.00;100.00
10079;BME280;5078;42.544;22.966;2023-06-14T04:31:08;93612.94;;;19.75;100.00
10079;BME280;5078;42.544;22.966;2023-06-14T04:33:37;93620.06;;;20.39;100.00
10079;BME280;5078;42.544;22.966;2023-06-14T04:36:09;93617.88;;;20.53;100.00
10079;BME280;5078;42.544;22.966;2023-06-14T04:38:37;93642.91;;;20.65;100.00
10079;BME280;5078;42.544;22.966;2023-06-14T04:41:04;93638.38;;;20.54;100.00
10079;BME280;5078;42.544;22.966;2023-06-14T04:43:31;93637.34;;;20.55;100.00
10079;BME280;5078;42.544;22.966;2023-06-14T04:46:03;93634.16;;;20.29;100.00
10079;BME280;5078;42.544;22.966;2023-06-14T04:48:32;93654.59;;;20.42;100.00
10079;BME280;5078;42.544;22.966;2023-06-14T04:50:59;93642.03;;;19.90;100.00
10079;BME280;5078;42.544;22.966;2023-06-14T04:53:26;93614.81;;;19.63;100.00
10079;BME280;5078;42.544;22.966;2023-06-14T04:55:54;93651.47;;;19.17;100.00
10079;BME280;5078;42.544;22.966;2023-06-14T04:58:21;93662.78;;;19.31;100.00
10079;BME280;5078;42.544;22.966;2023-06-14T05:00:48;93658.47;;;19.30;100.00
10079;BME280;5078;42.544;22.966;2023-06-14T05:03:15;93634.88;;;19.08;100.00
10079;BME280;5078;42.544;22.966;2023-06-14T05:05:45;93669.34;;;19.23;100.00
10079;BME280;5078;42.544;22.966;2023-06-14T05:08:12;93669.53;;;18.86;100.00
10079;BME280;5078;42.544;22.966;2023-06-14T05:10:39;93666.06;;;19.09;100.00
10079;BME280;5078;42.544;22.966;2023-06-14T05:13:05;93665.94;;;19.51;100.00
10079;BME280;5078;42.544;22.966;2023-06-14T05:15:32;93670.38;;;19.34;100.00
10079;BME280;5078;42.544;22.966;2023-06-14T05:17:59;93661.84;;;19.72;100.00
10079;BME280;5078;42.544;22.966;2023-06-14T05:20:26;93662.56;;;19.79;100.00
10079;BME280;5078;42.544;22.966;2023-06-14T05:22:55;93667.22;;;19.49;100.00
10079;BME280;5078;42.544;22.966;2023-06-14T05:25:22;93673.63;;;19.95;100.00
10079;BME280;5078;42.544;22.966;2023-06-14T05:27:49;93674.81;;;20.28;100.00
10079;BME280;5078;42.544;22.966;2023-06-14T05:30:25;93675.75;;;19.57;100.00
10079;BME280;5078;42.544;22.966;2023-06-14T05:32:52;93695.72;;;19.61;100.00
10079;BME280;5078;42.544;22.966;2023-06-14T05:35:27;93686.69;;;20.32;100.00
10079;BME280;5078;42.544;22.966;2023-06-14T05:37:55;93679.94;;;21.03;100.00
10079;BME280;5078;42.544;22.966;2023-06-14T05:40:21;93697.03;;;21.60;100.00
10079;BME280;5078;42.544;22.966;2023-06-14T05:42:48;93688.28;;;22.13;100.00
10079;BME280;5078;42.544;22.966;2023-06-14T05:45:15;93691.78;;;22.85;100.00
10079;BME280;5078;42.544;22.966;2023-06-14T05:47:42;93688.25;;;23.44;100.00
10079;BME280;5078;42.544;22.966;2023-06-14T05:50:09;93689.31;;;23.75;100.00
10079;BME280;5078;42.544;22.966;2023-06-14T05:52:36;93680.72;;;23.94;100.00
10079;BME280;5078;42.544;22.966;2023-06-14T05:55:05;93689.16;;;23.55;100.00
10079;BME280;5078;42.544;22.966;2023-06-14T05:57:32;93671.31;;;23.21;100.00
10079;BME280;5078;42.544;22.966;2023-06-14T05:59:59;93683.41;;;23.88;100.00
10079;BME280;5078;42.544;22.966;2023-06-14T06:02:25;93679.88;;;23.88;100.00
10079;BME280;5078;42.544;22.966;2023-06-14T06:04:52;93675.31;;;24.46;96.15
10079;BME280;5078;42.544;22.966;2023-06-14T06:07:19;93671.00;;;24.66;92.60
10079;BME280;5078;42.544;22.966;2023-06-14T06:09:45;93679.44;;;24.69;88.06
10079;BME280;5078;42.544;22.966;2023-06-14T06:12:13;93677.00;;;24.83;89.83
10079;BME280;5078;42.544;22.966;2023-06-14T06:14:40;93681.38;;;25.00;89.05
10079;BME280;5078;42.544;22.966;2023-06-14T06:17:07;93679.28;;;24.39;90.14
10079;BME280;5078;42.544;22.966;2023-06-14T06:19:34;93680.59;;;25.20;84.67
10079;BME280;5078;42.544;22.966;2023-06-14T06:22:00;93674.63;;;25.43;82.96
10079;BME280;5078;42.544;22.966;2023-06-14T06:24:27;93681.38;;;25.76;77.38
10079;BME280;5078;42.544;22.966;2023-06-14T06:26:54;93671.28;;;26.08;72.31
10079;BME280;5078;42.544;22.966;2023-06-14T06:29:22;93674.91;;;25.36;71.81
10079;BME280;5078;42.544;22.966;2023-06-14T06:31:48;93679.22;;;25.58;73.36
10079;BME280;5078;42.544;22.966;2023-06-14T06:34:15;93664.81;;;25.88;68.98
10079;BME280;5078;42.544;22.966;2023-06-14T06:36:42;93670.78;;;25.85;67.39
10079;BME280;5078;42.544;22.966;2023-06-14T06:39:08;93664.31;;;25.20;68.29
10079;BME280;5078;42.544;22.966;2023-06-14T06:41:36;93677.63;;;25.26;75.72
10079;BME280;5078;42.544;22.966;2023-06-14T06:44:05;93672.72;;;25.69;66.77
10079;BME280;5078;42.544;22.966;2023-06-14T06:46:33;93675.72;;;25.16;74.22
10079;BME280;5078;42.544;22.966;2023-06-14T06:49:00;93673.22;;;24.79;75.83
10079;BME280;5078;42.544;22.966;2023-06-14T06:51:27;93671.91;;;25.33;74.01
10079;BME280;5078;42.544;22.966;2023-06-14T06:53:54;93680.53;;;25.76;72.54
10079;BME280;5078;42.544;22.966;2023-06-14T06:56:21;93681.44;;;26.52;65.18
10079;BME280;5078;42.544;22.966;2023-06-14T06:58:48;93680.00;;;25.94;62.87
10079;BME280;5078;42.544;22.966;2023-06-14T07:01:15;93670.69;;;26.26;61.30
10079;BME280;5078;42.544;22.966;2023-06-14T07:03:43;93675.03;;;26.22;63.06
10079;BME280;5078;42.544;22.966;2023-06-14T07:06:10;93678.84;;;26.16;62.66
10079;BME280;5078;42.544;22.966;2023-06-14T07:08:37;93679.84;;;26.40;61.92
10079;BME280;5078;42.544;22.966;2023-06-14T07:11:04;93677.28;;;25.99;63.39
10079;BME280;5078;42.544;22.966;2023-06-14T07:13:31;93677.69;;;26.92;58.62
10079;BME280;5078;42.544;22.966;2023-06-14T07:15:59;93677.72;;;27.31;54.70
10079;BME280;5078;42.544;22.966;2023-06-14T07:18:26;93672.25;;;27.37;52.97
10079;BME280;5078;42.544;22.966;2023-06-14T07:20:54;93668.00;;;27.54;53.40
10079;BME280;5078;42.544;22.966;2023-06-14T07:23:21;93669.78;;;27.35;54.98
10079;BME280;5078;42.544;22.966;2023-06-14T07:25:48;93667.50;;;27.08;57.22
10079;BME280;5078;42.544;22.966;2023-06-14T07:28:15;93666.09;;;27.16;56.68
10079;BME280;5078;42.544;22.966;2023-06-14T07:30:42;93665.91;;;27.07;56.64
10079;BME280;5078;42.544;22.966;2023-06-14T07:33:09;93665.69;;;26.54;57.71
10079;BME280;5078;42.544;22.966;2023-06-14T07:35:37;93670.88;;;26.40;61.92
10079;BME280;5078;42.544;22.966;2023-06-14T07:38:05;93677.16;;;26.30;59.45
10079;BME280;5078;42.544;22.966;2023-06-14T07:40:32;93668.47;;;26.88;58.90
10079;BME280;5078;42.544;22.966;2023-06-14T07:42:59;93679.41;;;27.91;52.13
10079;BME280;5078;42.544;22.966;2023-06-14T07:45:26;93684.66;;;27.48;52.90
10079;BME280;5078;42.544;22.966;2023-06-14T07:47:53;93695.53;;;27.14;52.73
10079;BME280;5078;42.544;22.966;2023-06-14T07:50:20;93694.25;;;27.40;52.53
10079;BME280;5078;42.544;22.966;2023-06-14T07:52:47;93686.59;;;27.03;51.90
10079;BME280;5078;42.544;22.966;2023-06-14T07:55:15;93697.94;;;27.20;51.52
10079;BME280;5078;42.544;22.966;2023-06-14T07:57:42;93691.44;;;25.91;56.89
10079;BME280;5078;42.544;22.966;2023-06-14T08:00:10;93696.31;;;25.53;60.23
10079;BME280;5078;42.544;22.966;2023-06-14T08:02:40;93691.19;;;25.31;60.47
10079;BME280;5078;42.544;22.966;2023-06-14T08:05:09;93708.03;;;24.35;60.62
10079;BME280;5078;42.544;22.966;2023-06-14T08:07:36;93714.47;;;23.76;65.18
10079;BME280;5078;42.544;22.966;2023-06-14T08:10:03;93709.06;;;24.28;61.19
10079;BME280;5078;42.544;22.966;2023-06-14T08:12:31;93704.47;;;25.23;57.07
10079;BME280;5078;42.544;22.966;2023-06-14T08:14:59;93713.16;;;25.40;54.41
10079;BME280;5078;42.544;22.966;2023-06-14T08:17:26;93712.88;;;25.88;58.99
10079;BME280;5078;42.544;22.966;2023-06-14T08:19:53;93713.69;;;25.93;55.45
10079;BME280;5078;42.544;22.966;2023-06-14T08:22:22;93697.94;;;26.71;52.96
10079;BME280;5078;42.544;22.966;2023-06-14T08:24:49;93719.59;;;27.36;53.46
10079;BME280;5078;42.544;22.966;2023-06-14T08:27:16;93712.06;;;27.27;51.35
10079;BME280;5078;42.544;22.966;2023-06-14T08:29:44;93711.56;;;26.65;50.99
10079;BME280;5078;42.544;22.966;2023-06-14T08:32:12;93701.72;;;26.10;52.59
10079;BME280;5078;42.544;22.966;2023-06-14T08:34:39;93701.72;;;26.04;52.94
10079;BME280;5078;42.544;22.966;2023-06-14T08:37:05;93705.09;;;26.61;53.86
10079;BME280;5078;42.544;22.966;2023-06-14T08:39:33;93686.94;;;26.96;50.72
10079;BME280;5078;42.544;22.966;2023-06-14T08:42:01;93697.94;;;27.15;50.50
10079;BME280;5078;42.544;22.966;2023-06-14T08:44:28;93701.63;;;27.40;49.30
10079;BME280;5078;42.544;22.966;2023-06-14T08:46:56;93698.03;;;27.79;49.20
10079;BME280;5078;42.544;22.966;2023-06-14T08:49:25;93690.66;;;28.32;47.20
10079;BME280;5078;42.544;22.966;2023-06-14T08:51:57;93696.81;;;26.82;49.99
10079;BME280;5078;42.544;22.966;2023-06-14T08:54:25;93683.56;;;27.83;49.45
10079;BME280;5078;42.544;22.966;2023-06-14T08:56:52;93690.44;;;27.70;48.71
10079;BME280;5078;42.544;22.966;2023-06-14T08:59:23;93673.47;;;27.84;47.73
10079;BME280;5078;42.544;22.966;2023-06-14T09:01:51;93677.28;;;27.83;46.34
10079;BME280;5078;42.544;22.966;2023-06-14T09:04:21;93678.25;;;27.34;46.95
10079;BME280;5078;42.544;22.966;2023-06-14T09:06:48;93663.97;;;27.47;48.82
10079;BME280;5078;42.544;22.966;2023-06-14T09:09:18;93670.72;;;27.15;47.84
10079;BME280;5078;42.544;22.966;2023-06-14T09:11:46;93671.09;;;27.72;49.00
10079;BME280;5078;42.544;22.966;2023-06-14T09:14:13;93670.06;;;27.39;46.36
10079;BME280;5078;42.544;22.966;2023-06-14T09:16:40;93668.25;;;27.24;47.20
10079;BME280;5078;42.544;22.966;2023-06-14T09:19:07;93660.97;;;27.78;46.00
10079;BME280;5078;42.544;22.966;2023-06-14T09:21:35;93653.81;;;27.87;45.45
10079;BME280;5078;42.544;22.966;2023-06-14T09:24:03;93664.66;;;27.63;47.83
10079;BME280;5078;42.544;22.966;2023-06-14T09:26:30;93657.50;;;28.01;46.12
10079;BME280;5078;42.544;22.966;2023-06-14T09:28:57;93651.53;;;28.66;44.66
10079;BME280;5078;42.544;22.966;2023-06-14T09:31:24;93651.03;;;27.92;44.59
10079;BME280;5078;42.544;22.966;2023-06-14T09:33:55;93659.22;;;28.16;45.63
10079;BME280;5078;42.544;22.966;2023-06-14T09:36:23;93659.84;;;27.84;46.04
10079;BME280;5078;42.544;22.966;2023-06-14T09:38:55;93663.34;;;27.55;46.31
10079;BME280;5078;42.544;22.966;2023-06-14T09:41:30;93656.66;;;27.42;45.83
10079;BME280;5078;42.544;22.966;2023-06-14T09:43:58;93655.94;;;27.61;45.85
10079;BME280;5078;42.544;22.966;2023-06-14T09:46:26;93649.19;;;27.53;45.99
10079;BME280;5078;42.544;22.966;2023-06-14T09:48:53;93656.72;;;27.66;47.98
10079;BME280;5078;42.544;22.966;2023-06-14T09:51:22;93655.94;;;27.61;47.50
10079;BME280;5078;42.544;22.966;2023-06-14T09:53:49;93661.13;;;26.88;48.28
10079;BME280;5078;42.544;22.966;2023-06-14T09:56:23;93650.41;;;27.02;47.10
10079;BME280;5078;42.544;22.966;2023-06-14T09:58:54;93649.41;;;26.38;49.70
10079;BME280;5078;42.544;22.966;2023-06-14T10:01:23;93637.59;;;26.68;51.66
10079;BME280;5078;42.544;22.966;2023-06-14T10:03:52;93638.03;;;26.81;50.02
10079;BME280;5078;42.544;22.966;2023-06-14T10:06:22;93631.75;;;26.85;49.71
10079;BME280;5078;42.544;22.966;2023-06-14T10:08:50;93630.47;;;26.73;48.38
10079;BME280;5078;42.544;22.966;2023-06-14T10:11:20;93625.78;;;27.18;46.35
10079;BME280;5078;42.544;22.966;2023-06-14T10:13:47;93620.56;;;27.31;45.83
10079;BME280;5078;42.544;22.966;2023-06-14T10:16:18;93613.25;;;27.56;44.15
10079;BME280;5078;42.544;22.966;2023-06-14T10:18:49;93617.75;;;27.02;43.70
10079;BME280;5078;42.544;22.966;2023-06-14T10:21:22;93613.28;;;27.17;47.64
10079;BME280;5078;42.544;22.966;2023-06-14T10:23:56;93613.28;;;26.82;47.66
10079;BME280;5078;42.544;22.966;2023-06-14T10:26:27;93612.22;;;27.13;46.41
10079;BME280;5078;42.544;22.966;2023-06-14T10:29:01;93604.59;;;27.49;44.69
10079;BME280;5078;42.544;22.966;2023-06-14T10:31:49;93602.84;;;26.95;46.87
10079;BME280;5078;42.544;22.966;2023-06-14T10:34:23;93598.94;;;27.11;46.21
10079;BME280;5078;42.544;22.966;2023-06-14T10:37:04;93605.59;;;27.29;44.63
10079;BME280;5078;42.544;22.966;2023-06-14T10:39:32;93600.16;;;27.29;44.38
10079;BME280;5078;42.544;22.966;2023-06-14T10:42:01;93598.63;;;27.47;44.86
10079;BME280;5078;42.544;22.966;2023-06-14T10:44:39;93595.69;;;27.67;42.95
10079;BME280;5078;42.544;22.966;2023-06-14T10:47:10;93583.88;;;27.48;42.35
10079;BME280;5078;42.544;22.966;2023-06-14T10:49:42;93584.72;;;27.48;41.62
10079;BME280;5078;42.544;22.966;2023-06-14T10:52:11;93590.47;;;27.71;42.39
10079;BME280;5078;42.544;22.966;2023-06-14T10:55:02;93581.47;;;27.70;42.26
10079;BME280;5078;42.544;22.966;2023-06-14T10:57:32;93569.03;;;27.64;42.28
10079;BME280;5078;42.544;22.966;2023-06-14T10:59:59;93565.59;;;27.78;41.92
10079;BME280;5078;42.544;22.966;2023-06-14T11:05:50;93568.66;;;27.47;42.49
10079;BME280;5078;42.544;22.966;2023-06-14T11:11:23;93553.06;;;26.60;43.19
10079;BME280;5078;42.544;22.966;2023-06-14T11:13:53;93553.72;;;26.41;44.96
10079;BME280;5078;42.544;22.966;2023-06-14T11:16:20;93564.75;;;26.60;44.24
10079;BME280;5078;42.544;22.966;2023-06-14T11:18:46;93569.56;;;26.74;43.51
10079;BME280;5078;42.544;22.966;2023-06-14T11:21:15;93569.41;;;26.55;43.45
10079;BME280;5078;42.544;22.966;2023-06-14T11:23:49;93569.94;;;26.57;42.44
10079;BME280;5078;42.544;22.966;2023-06-14T11:26:16;93562.88;;;26.51;42.96
10079;BME280;5078;42.544;22.966;2023-06-14T11:28:57;93559.38;;;27.24;40.56
10079;BME280;5078;42.544;22.966;2023-06-14T11:31:24;93553.53;;;27.60;39.71
10079;BME280;5078;42.544;22.966;2023-06-14T11:33:53;93553.63;;;27.79;40.22
10079;BME280;5078;42.544;22.966;2023-06-14T11:36:20;93545.16;;;27.56;38.82
10079;BME280;5078;42.544;22.966;2023-06-14T11:38:47;93546.88;;;27.47;39.94
10079;BME280;5078;42.544;22.966;2023-06-14T11:41:13;93544.75;;;27.92;37.89
10079;BME280;5078;42.544;22.966;2023-06-14T11:43:40;93542.00;;;28.16;36.07
10079;BME280;5078;42.544;22.966;2023-06-14T11:46:13;93543.75;;;27.00;37.59
10079;BME280;5078;42.544;22.966;2023-06-14T11:48:43;93533.72;;;26.96;39.00
10079;BME280;5078;42.544;22.966;2023-06-14T11:51:10;93536.97;;;26.98;39.57
10079;BME280;5078;42.544;22.966;2023-06-14T11:53:37;93536.41;;;27.01;38.44
10079;BME280;5078;42.544;22.966;2023-06-14T11:56:05;93541.09;;;26.56;40.22
10079;BME280;5078;42.544;22.966;2023-06-14T11:58:32;93538.69;;;26.54;42.11
10079;BME280;5078;42.544;22.966;2023-06-14T12:00:58;93538.56;;;26.70;42.24
10079;BME280;5078;42.544;22.966;2023-06-14T12:03:26;93536.78;;;26.55;43.84
10079;BME280;5078;42.544;22.966;2023-06-14T12:06:04;93530.19;;;26.61;43.60
10079;BME280;5078;42.544;22.966;2023-06-14T12:08:33;93537.72;;;26.74;43.73
10079;BME280;5078;42.544;22.966;2023-06-14T12:11:04;93542.50;;;26.53;43.89
10079;BME280;5078;42.544;22.966;2023-06-14T12:13:31;93541.41;;;26.54;44.61
10079;BME280;5078;42.544;22.966;2023-06-14T12:15:58;93546.97;;;25.69;49.55
10079;BME280;5078;42.544;22.966;2023-06-14T12:18:33;93544.34;;;25.38;53.74
10079;BME280;5078;42.544;22.966;2023-06-14T12:21:01;93538.38;;;25.41;52.88
10079;BME280;5078;42.544;22.966;2023-06-14T12:23:39;93539.97;;;25.47;56.16
10079;BME280;5078;42.544;22.966;2023-06-14T12:26:05;93529.84;;;25.68;57.28
10079;BME280;5078;42.544;22.966;2023-06-14T12:28:33;93533.31;;;25.94;62.47
10079;BME280;5078;42.544;22.966;2023-06-14T12:30:59;93526.16;;;26.14;63.83
10079;BME280;5078;42.544;22.966;2023-06-14T12:33:26;93522.09;;;26.11;63.29
10079;BME280;5078;42.544;22.966;2023-06-14T12:35:56;93516.00;;;26.30;59.43
10079;BME280;5078;42.544;22.966;2023-06-14T12:38:23;93513.38;;;26.59;60.28
10079;BME280;5078;42.544;22.966;2023-06-14T12:40:50;93518.38;;;26.76;63.20
10079;BME280;5078;42.544;22.966;2023-06-14T12:43:17;93515.25;;;26.93;62.22
10079;BME280;5078;42.544;22.966;2023-06-14T12:45:44;93515.47;;;27.01;59.61
10079;BME280;5078;42.544;22.966;2023-06-14T12:48:11;93529.78;;;26.78;60.57
10079;BME280;5078;42.544;22.966;2023-06-14T12:50:38;93505.53;;;26.47;62.27
10079;BME280;5078;42.544;22.966;2023-06-14T12:53:06;93512.31;;;26.50;61.29
10079;BME280;5078;42.544;22.966;2023-06-14T12:55:32;93514.75;;;26.51;58.69
10079;BME280;5078;42.544;22.966;2023-06-14T12:57:59;93510.75;;;26.78;55.00
10079;BME280;5078;42.544;22.966;2023-06-14T13:00:26;93507.97;;;26.54;57.34
10079;BME280;5078;42.544;22.966;2023-06-14T13:02:53;93510.56;;;26.69;55.37
10079;BME280;5078;42.544;22.966;2023-06-14T13:05:19;93515.78;;;26.95;54.67
10079;BME280;5078;42.544;22.966;2023-06-14T13:07:46;93511.03;;;27.05;56.97